Terminal Aerodrome Forecast
Issued by NWS

Home | Current Version | Previous Version | Text Only | Print | Product List | Glossary On
Versions: 1 2 3 4 5 6 7 8 9 10 11 12 13 14 15 16
000
FTUS44 KOHX 240500
TAFCKV
TAF
KCKV 240525Z 2406/2506 VRB04KT P6SM SKC
     FM241500 18012KT P6SM SKC
     FM242100 19012G20KT P6SM SCT050
     FM250200 18015KT P6SM VCTS BKN040CB=

USA.gov is the U.S. government's official web portal to all federal, state and local government web resources and services.